createdAt,value
2022-08-09T00:00:11.845Z,102177.31
2022-08-09T00:02:49.167Z,102159.47
2022-08-09T00:06:15.900Z,102171.84
2022-08-09T00:08:09.651Z,102167.56
2022-08-09T00:10:40.451Z,102160.94
2022-08-09T00:13:17.603Z,102160.59
2022-08-09T00:16:00.062Z,102147.59
2022-08-09T00:18:34.772Z,102146.66
2022-08-09T00:21:07.866Z,102152.31
2022-08-09T00:23:57.829Z,102146.66
2022-08-09T00:26:32.165Z,102146.06
2022-08-09T00:29:01.230Z,102157.34
2022-08-09T00:31:56.989Z,102147.44
2022-08-09T00:34:15.295Z,102137.16
2022-08-09T00:36:47.983Z,102142.81
2022-08-09T00:40:01.779Z,102138.25
2022-08-09T00:44:14.882Z,102148.72
2022-08-09T00:44:49.099Z,102136.53
2022-08-09T00:47:15.982Z,102139.69
2022-08-09T00:49:43.864Z,102144.00
2022-08-09T00:52:30.501Z,102149.00
2022-08-09T00:55:02.107Z,102135.81
2022-08-09T00:57:38.249Z,102139.34
2022-08-09T01:00:21.363Z,102146.75
2022-08-09T01:03:15.228Z,102146.66
2022-08-09T01:06:13.942Z,102118.31
2022-08-09T01:09:23.397Z,102164.78
2022-08-09T01:12:06.573Z,102167.75
2022-08-09T01:14:43.926Z,102155.44
2022-08-09T01:17:22.611Z,102146.06
2022-08-09T01:20:09.699Z,102154.44
2022-08-09T01:22:55.050Z,102153.75
2022-08-09T01:25:42.206Z,102156.38
2022-08-09T01:28:16.907Z,102142.38
2022-08-09T01:30:52.238Z,102136.09
2022-08-09T01:33:24.114Z,102126.84
2022-08-09T01:35:59.222Z,102147.75
2022-08-09T01:38:30.024Z,102126.50
2022-08-09T01:41:06.390Z,102138.50
2022-08-09T01:43:42.105Z,102133.03
2022-08-09T01:46:28.565Z,102124.22
2022-08-09T01:49:09.603Z,102133.56
2022-08-09T01:51:42.867Z,102140.75
2022-08-09T01:54:13.877Z,102145.59
2022-08-09T01:56:43.395Z,102143.53
2022-08-09T01:59:20.257Z,102138.13
2022-08-09T02:02:00.317Z,102133.91
2022-08-09T02:04:29.737Z,102138.13
2022-08-09T02:07:18.507Z,102122.06
2022-08-09T02:10:04.170Z,102139.25
2022-08-09T02:12:35.358Z,102110.63
2022-08-09T02:15:06.448Z,102145.44
2022-08-09T02:18:00.534Z,102114.81
2022-08-09T02:20:25.230Z,102132.84
2022-08-09T02:23:08.222Z,102135.34
2022-08-09T02:25:42.173Z,102131.81
2022-08-09T02:28:12.466Z,102120.31
2022-08-09T02:30:51.722Z,102119.47
2022-08-09T02:33:58.117Z,102117.50
2022-08-09T02:36:20.021Z,102126.13
2022-08-09T02:38:53.011Z,102135.41
2022-08-09T02:41:28.485Z,102133.78
2022-08-09T02:44:01.519Z,102125.28
2022-08-09T02:46:38.550Z,102121.09
2022-08-09T02:49:12.620Z,102128.78
2022-08-09T02:51:41.870Z,102145.63
2022-08-09T02:54:13.790Z,102130.69
2022-08-09T02:56:51.287Z,102124.59
2022-08-09T02:59:26.523Z,102121.00
2022-08-09T03:02:07.107Z,102129.25
2022-08-09T03:04:40.848Z,102130.25
2022-08-09T03:07:13.837Z,102135.34
2022-08-09T03:09:43.434Z,102113.38
2022-08-09T03:12:23.707Z,102125.53
2022-08-09T03:14:51.761Z,102126.59
2022-08-09T03:17:20.542Z,102096.50
2022-08-09T03:20:02.751Z,102123.69
2022-08-09T03:22:33.320Z,102129.09
2022-08-09T03:25:21.876Z,102128.41
2022-08-09T03:27:57.724Z,102135.88
2022-08-09T03:30:33.685Z,102131.78
2022-08-09T03:33:17.288Z,102127.88
2022-08-09T03:36:12.258Z,102129.97
2022-08-09T03:38:41.919Z,102135.19
2022-08-09T03:41:15.519Z,102111.34
2022-08-09T03:44:03.060Z,102131.69
2022-08-09T03:46:31.443Z,102135.28
2022-08-09T03:49:03.745Z,102135.97
2022-08-09T03:51:56.869Z,102126.00
2022-08-09T03:54:29.241Z,102114.09
2022-08-09T03:56:59.830Z,102131.00
2022-08-09T03:59:43.174Z,102107.75
2022-08-09T04:02:14.560Z,102121.91
2022-08-09T04:04:45.675Z,102119.75
2022-08-09T04:07:13.216Z,102108.00
2022-08-09T04:09:42.167Z,102098.72
2022-08-09T04:12:30.842Z,102116.22
2022-08-09T04:15:11.433Z,102101.47
2022-08-09T04:17:44.428Z,102098.75
2022-08-09T04:20:15.693Z,102109.38
2022-08-09T04:22:44.448Z,102108.94
2022-08-09T04:25:13.170Z,102104.06
2022-08-09T04:27:46.795Z,102066.56
2022-08-09T04:30:20.965Z,102113.22
2022-08-09T04:32:51.656Z,102118.97
2022-08-09T04:35:21.596Z,102121.47
2022-08-09T04:37:49.833Z,102114.69
2022-08-09T04:40:28.739Z,102127.06
2022-08-09T04:43:03.753Z,102127.22
2022-08-09T04:45:31.045Z,102124.25
2022-08-09T04:48:07.949Z,102123.19
2022-08-09T04:50:38.093Z,102118.63
2022-08-09T04:53:11.569Z,102136.69
2022-08-09T04:55:59.053Z,102137.06
2022-08-09T04:58:32.822Z,102118.72
2022-08-09T05:01:00.712Z,102124.59
2022-08-09T05:03:41.305Z,102135.41
2022-08-09T05:06:26.728Z,102144.06
2022-08-09T05:09:00.027Z,102122.44
2022-08-09T05:11:32.213Z,102124.63
2022-08-09T05:14:06.717Z,102130.56
2022-08-09T05:16:58.506Z,102125.00
2022-08-09T05:19:25.786Z,102126.56
2022-08-09T05:21:55.406Z,102137.06
2022-08-09T05:24:24.306Z,102135.09
2022-08-09T05:26:51.822Z,102152.72
2022-08-09T05:29:23.961Z,102151.19
2022-08-09T05:31:57.691Z,102141.81
2022-08-09T05:34:31.485Z,102146.72
2022-08-09T05:37:06.104Z,102150.59
2022-08-09T05:39:43.867Z,102146.94
2022-08-09T05:42:21.250Z,102149.59
2022-08-09T05:44:50.867Z,102159.72
2022-08-09T05:47:19.237Z,102155.75
2022-08-09T05:50:31.138Z,102159.53
2022-08-09T05:52:33.059Z,102161.78
2022-08-09T05:55:06.973Z,102158.53
2022-08-09T05:57:55.469Z,102160.13
2022-08-09T06:00:23.288Z,102146.00
2022-08-09T06:02:54.150Z,102150.72
2022-08-09T06:05:50.616Z,102174.47
2022-08-09T06:08:09.015Z,102168.13
2022-08-09T06:10:40.503Z,102179.03
2022-08-09T06:13:12.214Z,102183.91
2022-08-09T06:15:46.777Z,102176.16
2022-08-09T06:18:14.825Z,102169.34
2022-08-09T06:20:43.110Z,102182.94
2022-08-09T06:23:21.337Z,102201.13
2022-08-09T06:25:49.713Z,102153.59
2022-08-09T06:28:22.206Z,102189.44
2022-08-09T06:30:54.309Z,102194.56
2022-08-09T06:33:41.303Z,102178.78
2022-08-09T06:36:09.531Z,102198.19
2022-08-09T06:38:47.278Z,102180.97
2022-08-09T06:41:18.949Z,102170.56
2022-08-09T06:43:46.878Z,102203.44
2022-08-09T06:46:40.069Z,102193.88
2022-08-09T06:49:01.024Z,102171.31
2022-08-09T06:51:28.338Z,102181.69
2022-08-09T06:53:56.059Z,102172.44
2022-08-09T06:56:31.057Z,102196.09
2022-08-09T07:00:51.562Z,102182.34
2022-08-09T07:01:54.805Z,102187.50
2022-08-09T07:04:27.052Z,102198.06
2022-08-09T07:07:00.066Z,102203.53
2022-08-09T07:09:56.439Z,102143.91
2022-08-09T07:12:18.249Z,102174.44
2022-08-09T07:14:50.757Z,102161.78
2022-08-09T07:17:19.965Z,102193.84
2022-08-09T07:19:47.908Z,102172.00
2022-08-09T07:22:18.184Z,102182.94
2022-08-09T07:24:49.387Z,102173.50
2022-08-09T07:27:33.651Z,102165.22
2022-08-09T07:30:02.667Z,102187.03
2022-08-09T07:32:33.715Z,102198.56
2022-08-09T07:35:10.376Z,102191.41
2022-08-09T07:37:43.727Z,102188.06
2022-08-09T07:40:17.534Z,102126.22
2022-08-09T07:43:03.747Z,102167.28
2022-08-09T07:45:41.524Z,102195.47
2022-08-09T07:48:25.908Z,102182.41
2022-08-09T07:51:09.460Z,102197.22
2022-08-09T07:54:05.566Z,102180.84
2022-08-09T07:56:34.595Z,102174.41
2022-08-09T07:59:12.320Z,102165.41
2022-08-09T08:05:17.598Z,102100.41
2022-08-09T08:08:43.724Z,102167.38
2022-08-09T08:10:34.837Z,102112.84
2022-08-09T08:15:57.752Z,102186.09
2022-08-09T08:17:35.533Z,102131.06
2022-08-09T08:18:26.088Z,102151.97
2022-08-09T08:20:53.582Z,102097.16
2022-08-09T08:23:20.965Z,102141.81
2022-08-09T08:26:06.224Z,102136.59
2022-08-09T08:28:35.385Z,102167.97
2022-08-09T08:31:13.847Z,102164.72
2022-08-09T08:33:52.652Z,102167.50
2022-08-09T08:40:15.990Z,102089.13
2022-08-09T08:42:47.353Z,102156.38
2022-08-09T08:45:51.567Z,102106.19
2022-08-09T08:48:29.107Z,102152.38
2022-08-09T08:50:58.906Z,102190.56
2022-08-09T08:53:36.966Z,102135.91
2022-08-09T08:56:16.834Z,102141.66
2022-08-09T08:58:56.504Z,102138.25
2022-08-09T09:01:44.796Z,102162.13
2022-08-09T09:04:27.099Z,102148.78
2022-08-09T09:06:58.149Z,102184.66
2022-08-09T09:10:01.791Z,102185.00
2022-08-09T09:12:17.005Z,102149.28
2022-08-09T09:14:48.081Z,102178.00
2022-08-09T09:17:16.599Z,102152.38
2022-08-09T09:20:29.199Z,102131.88
2022-08-09T09:23:14.078Z,102129.41
2022-08-09T09:29:02.334Z,102114.91
2022-08-09T09:32:06.241Z,102176.53
2022-08-09T09:34:18.442Z,102172.28
2022-08-09T09:36:52.983Z,102154.81
2022-08-09T09:39:42.825Z,102188.03
2022-08-09T09:42:26.049Z,102175.34
2022-08-09T09:45:05.944Z,102168.09
2022-08-09T09:47:42.168Z,102142.56
2022-08-09T09:50:39.588Z,102153.38
2022-08-09T09:53:18.488Z,102154.63
2022-08-09T09:56:05.311Z,102173.41
2022-08-09T09:58:48.060Z,102148.44
2022-08-09T10:01:31.153Z,102181.53
2022-08-09T10:04:12.803Z,102125.72
2022-08-09T10:06:47.114Z,102160.22
2022-08-09T10:09:22.438Z,102157.59
2022-08-09T10:12:14.423Z,102179.41
2022-08-09T10:14:49.457Z,102157.25
2022-08-09T10:17:40.649Z,102177.78
2022-08-09T10:20:15.271Z,102180.25
2022-08-09T10:22:42.291Z,102135.25
2022-08-09T10:25:12.419Z,102124.56
2022-08-09T10:27:56.994Z,102163.25
2022-08-09T10:34:05.203Z,102176.78
2022-08-09T10:36:05.350Z,102134.38
2022-08-09T10:38:55.882Z,102174.88
2022-08-09T10:41:24.183Z,102156.59
2022-08-09T10:43:59.185Z,102138.06
2022-08-09T10:46:57.613Z,102162.34
2022-08-09T10:49:51.849Z,102164.34
2022-08-09T10:52:42.893Z,102176.34
2022-08-09T10:55:28.003Z,102166.78
2022-08-09T10:58:00.303Z,102151.81
2022-08-09T11:03:01.757Z,102170.66
2022-08-09T11:03:49.773Z,102109.94
2022-08-09T11:06:22.927Z,102167.25
2022-08-09T11:08:52.996Z,102162.63
2022-08-09T11:11:21.331Z,102104.56
2022-08-09T11:14:28.390Z,102159.22
2022-08-09T11:16:57.203Z,102141.00
2022-08-09T11:20:11.888Z,102174.25
2022-08-09T11:22:55.578Z,102175.59
2022-08-09T11:25:44.667Z,102183.25
2022-08-09T11:28:30.768Z,102175.50
2022-08-09T11:31:43.102Z,102162.88
2022-08-09T11:34:25.018Z,102155.84
2022-08-09T11:36:52.825Z,102120.56
2022-08-09T11:39:19.580Z,102133.44
2022-08-09T11:41:47.049Z,102154.50
2022-08-09T11:44:15.862Z,102158.88
2022-08-09T11:46:59.690Z,102170.63
2022-08-09T11:50:55.374Z,102153.72
2022-08-09T11:53:15.403Z,102166.09
2022-08-09T11:55:53.601Z,102162.84
2022-08-09T11:58:32.356Z,102178.69
2022-08-09T12:01:37.203Z,102171.66
2022-08-09T12:04:01.172Z,102170.69
2022-08-09T12:06:32.052Z,102154.97
2022-08-09T12:09:01.332Z,102151.47
2022-08-09T12:11:30.215Z,102161.97
2022-08-09T12:14:28.527Z,102154.91
2022-08-09T12:16:58.658Z,102132.88
2022-08-09T12:19:32.382Z,102134.50
2022-08-09T12:22:03.199Z,102153.47
2022-08-09T12:24:29.939Z,102115.00
2022-08-09T12:29:00.101Z,102145.31
2022-08-09T12:30:01.930Z,102146.03
2022-08-09T12:32:44.216Z,102137.59
2022-08-09T12:35:13.329Z,102146.28
2022-08-09T12:37:50.014Z,102142.34
2022-08-09T12:40:21.390Z,102144.53
2022-08-09T12:42:51.375Z,102133.72
2022-08-09T12:45:34.178Z,102146.25
2022-08-09T12:48:11.022Z,102145.84
2022-08-09T12:50:51.945Z,102137.50
2022-08-09T12:53:34.994Z,102139.03
2022-08-09T12:56:39.964Z,102154.38
2022-08-09T12:59:06.103Z,102162.81
2022-08-09T13:01:33.120Z,102148.59
2022-08-09T13:04:33.170Z,102152.97
2022-08-09T13:06:58.002Z,102155.16
2022-08-09T13:09:30.501Z,102150.28
2022-08-09T13:12:03.707Z,102132.66
2022-08-09T13:14:40.565Z,102131.03
2022-08-09T13:17:43.957Z,102133.25
2022-08-09T13:20:14.422Z,102129.44
2022-08-09T13:23:00.946Z,102130.63
2022-08-09T13:25:54.758Z,102106.28
2022-08-09T13:28:33.901Z,102106.53
2022-08-09T13:32:14.908Z,102108.81
2022-08-09T13:33:58.844Z,102108.03
2022-08-09T13:36:41.414Z,102068.97
2022-08-09T13:39:34.108Z,102096.13
2022-08-09T13:42:04.424Z,102118.81
2022-08-09T13:44:33.748Z,102073.91
2022-08-09T13:47:29.827Z,102118.72
2022-08-09T13:49:57.387Z,102063.75
2022-08-09T13:52:28.137Z,102077.28
2022-08-09T13:55:00.139Z,102089.28
2022-08-09T13:57:35.769Z,102108.50
2022-08-09T14:00:07.625Z,102088.31
2022-08-09T14:02:42.186Z,102075.63
2022-08-09T14:05:58.910Z,102082.75
2022-08-09T14:08:08.551Z,102042.91
2022-08-09T14:10:49.145Z,102066.75
2022-08-09T14:13:28.120Z,102092.88
2022-08-09T14:16:10.956Z,102085.50
2022-08-09T14:18:43.166Z,102082.19
2022-08-09T14:21:17.543Z,102081.56
2022-08-09T14:23:54.642Z,102112.31
2022-08-09T14:26:33.869Z,102082.47
2022-08-09T14:29:08.174Z,102060.09
2022-08-09T14:31:54.236Z,102126.72
2022-08-09T14:34:31.423Z,102116.91
2022-08-09T14:37:06.433Z,102127.66
2022-08-09T14:39:45.717Z,102104.66
2022-08-09T14:42:40.720Z,102131.50
2022-08-09T14:46:39.402Z,102129.38
2022-08-09T14:47:58.369Z,102089.34
2022-08-09T14:50:31.696Z,102117.41
2022-08-09T14:53:01.129Z,102077.34
2022-08-09T14:55:29.311Z,102084.41
2022-08-09T14:58:04.710Z,102130.84
2022-08-09T15:00:36.613Z,102110.84
2022-08-09T15:03:08.774Z,102073.28
2022-08-09T15:05:40.343Z,102119.84
2022-08-09T15:08:19.444Z,102117.72
2022-08-09T15:11:01.182Z,102064.56
2022-08-09T15:13:48.305Z,102109.56
2022-08-09T15:16:18.839Z,102082.59
2022-08-09T15:18:49.021Z,102093.63
2022-08-09T15:21:57.001Z,102078.78
2022-08-09T15:24:12.171Z,102094.66
2022-08-09T15:26:45.205Z,102071.06
2022-08-09T15:30:57.215Z,102080.88
2022-08-09T15:32:00.417Z,102083.09
2022-08-09T15:34:33.930Z,102123.13
2022-08-09T15:37:04.349Z,102090.75
2022-08-09T15:39:49.927Z,102086.06
2022-08-09T15:42:19.174Z,102089.81
2022-08-09T15:44:46.561Z,102047.78
2022-08-09T15:47:14.290Z,102086.19
2022-08-09T15:50:04.287Z,102054.63
2022-08-09T15:52:33.711Z,102072.63
2022-08-09T15:55:01.069Z,102060.22
2022-08-09T15:57:35.778Z,102022.97
2022-08-09T16:00:24.369Z,102050.91
2022-08-09T16:02:54.829Z,102053.47
2022-08-09T16:05:26.782Z,102094.81
2022-08-09T16:08:24.767Z,102034.66
2022-08-09T16:10:58.663Z,102075.97
2022-08-09T16:14:03.053Z,102063.97
2022-08-09T16:16:18.679Z,102078.22
2022-08-09T16:18:46.113Z,102061.88
2022-08-09T16:21:25.530Z,102052.50
2022-08-09T16:23:58.663Z,102042.41
2022-08-09T16:26:34.745Z,102062.72
2022-08-09T16:29:10.560Z,102072.44
2022-08-09T16:32:17.854Z,102099.38
2022-08-09T16:34:55.703Z,102070.44
2022-08-09T16:37:53.178Z,102069.31
2022-08-09T16:40:08.838Z,102046.47
2022-08-09T16:42:36.307Z,102070.00
2022-08-09T16:45:05.347Z,102060.56
2022-08-09T16:48:42.025Z,102049.31
2022-08-09T16:50:33.051Z,102092.34
2022-08-09T16:53:02.006Z,102036.09
2022-08-09T16:55:31.516Z,102073.00
2022-08-09T16:58:17.015Z,102052.44
2022-08-09T17:00:43.949Z,102034.66
2022-08-09T17:03:22.129Z,102048.09
2022-08-09T17:06:07.859Z,102075.03
2022-08-09T17:09:01.834Z,102078.88
2022-08-09T17:11:40.655Z,102076.47
2022-08-09T17:14:08.985Z,102077.41
2022-08-09T17:16:52.401Z,102079.19
2022-08-09T17:19:20.889Z,102056.50
2022-08-09T17:21:47.912Z,102041.81
2022-08-09T17:24:30.522Z,102045.41
2022-08-09T17:26:58.474Z,102046.88
2022-08-09T17:29:31.745Z,102053.56
2022-08-09T17:32:05.289Z,102032.09
2022-08-09T17:35:10.892Z,102083.50
2022-08-09T17:37:24.847Z,102035.09
2022-08-09T17:39:56.726Z,102028.88
2022-08-09T17:42:41.066Z,102090.34
2022-08-09T17:45:27.333Z,101994.66
2022-08-09T17:48:05.192Z,102079.06
2022-08-09T17:50:37.080Z,102053.63
2022-08-09T17:53:19.765Z,102079.13
2022-08-09T17:55:54.132Z,102065.97
2022-08-09T17:58:26.711Z,102026.00
2022-08-09T18:00:56.742Z,102067.63
2022-08-09T18:03:26.032Z,102073.91
2022-08-09T18:05:57.285Z,102018.63
2022-08-09T18:08:27.994Z,102023.66
2022-08-09T18:11:01.600Z,102045.69
2022-08-09T18:13:43.614Z,102062.41
2022-08-09T18:16:28.734Z,102048.88
2022-08-09T18:18:56.544Z,102077.69
2022-08-09T18:21:24.358Z,102086.41
2022-08-09T18:24:10.661Z,102029.91
2022-08-09T18:26:46.623Z,102033.84
2022-08-09T18:30:38.039Z,102060.00
2022-08-09T18:32:07.402Z,102068.19
2022-08-09T18:34:35.687Z,102052.56
2022-08-09T18:37:04.119Z,102056.28
2022-08-09T18:39:32.490Z,102022.69
2022-08-09T18:42:08.011Z,102064.72
2022-08-09T18:44:35.379Z,102007.28
2022-08-09T18:47:07.337Z,102024.06
2022-08-09T18:49:43.048Z,102006.28
2022-08-09T18:52:13.508Z,102036.44
2022-08-09T18:54:49.586Z,102044.25
2022-08-09T18:57:22.143Z,102053.75
2022-08-09T18:59:56.382Z,102078.41
2022-08-09T19:02:31.925Z,102072.69
2022-08-09T19:05:14.684Z,102058.56
2022-08-09T19:07:59.393Z,102048.94
2022-08-09T19:10:37.309Z,102078.28
2022-08-09T19:13:20.838Z,102061.13
2022-08-09T19:15:52.563Z,102068.44
2022-08-09T19:18:34.043Z,102074.38
2022-08-09T19:21:10.618Z,102071.56
2022-08-09T19:24:36.558Z,102076.47
2022-08-09T19:26:31.069Z,102088.84
2022-08-09T19:29:01.910Z,102073.25
2022-08-09T19:31:44.049Z,102077.88
2022-08-09T19:34:21.552Z,102052.75
2022-08-09T19:36:51.082Z,102100.22
2022-08-09T19:39:20.389Z,102109.72
2022-08-09T19:41:56.322Z,102111.56
2022-08-09T19:44:23.386Z,102106.41
2022-08-09T19:46:53.520Z,102121.28
2022-08-09T19:50:07.769Z,102121.03
2022-08-09T19:52:08.743Z,102116.84
2022-08-09T19:54:35.829Z,102123.59
2022-08-09T19:57:02.656Z,102120.09
2022-08-09T19:59:58.047Z,102114.59
2022-08-09T20:04:08.155Z,102133.53
2022-08-09T20:05:10.323Z,102115.41
2022-08-09T20:07:58.935Z,102120.09
2022-08-09T20:10:34.879Z,102123.81
2022-08-09T20:13:05.414Z,102118.34
2022-08-09T20:16:38.240Z,102116.03
2022-08-09T20:18:22.320Z,102117.19
2022-08-09T20:20:51.056Z,102120.97
2022-08-09T20:23:21.114Z,102115.72
2022-08-09T20:25:52.079Z,102119.13
2022-08-09T20:28:34.166Z,102119.66
2022-08-09T20:31:04.594Z,102107.63
2022-08-09T20:33:41.235Z,102123.13
2022-08-09T20:36:11.151Z,102128.25
2022-08-09T20:39:28.366Z,102110.00
2022-08-09T20:41:35.060Z,102117.09
2022-08-09T20:44:06.910Z,102124.75
2022-08-09T20:46:43.302Z,102133.59
2022-08-09T20:49:16.020Z,102133.25
2022-08-09T20:51:44.252Z,102126.84
2022-08-09T20:54:16.448Z,102129.97
2022-08-09T20:56:53.626Z,102135.59
2022-08-09T20:59:50.103Z,102144.09
2022-08-09T21:02:10.806Z,102142.56
2022-08-09T21:05:57.881Z,102132.31
2022-08-09T21:07:38.498Z,102134.28
2022-08-09T21:10:07.627Z,102149.03
2022-08-09T21:12:37.066Z,102144.97
2022-08-09T21:15:04.717Z,102142.59
2022-08-09T21:18:20.691Z,102143.06
2022-08-09T21:20:25.829Z,102139.41
2022-08-09T21:22:54.105Z,102143.88
2022-08-09T21:25:44.326Z,102156.06
2022-08-09T21:28:34.675Z,102156.47
2022-08-09T21:31:16.355Z,102152.41
2022-08-09T21:33:46.042Z,102149.81
2022-08-09T21:36:18.429Z,102143.44
2022-08-09T21:38:51.087Z,102146.31
2022-08-09T21:41:25.533Z,102147.00
2022-08-09T21:44:10.761Z,102153.13
2022-08-09T21:46:37.590Z,102150.84
2022-08-09T21:49:04.312Z,102149.50
2022-08-09T21:51:36.345Z,102159.81
2022-08-09T21:54:12.042Z,102140.09
2022-08-09T21:56:44.761Z,102141.31
2022-08-09T21:59:25.551Z,102115.81
2022-08-09T22:01:59.030Z,102136.47
2022-08-09T22:04:55.074Z,102131.16
2022-08-09T22:07:35.130Z,102147.13
2022-08-09T22:10:04.549Z,102125.69
2022-08-09T22:12:31.974Z,102121.31
2022-08-09T22:14:58.998Z,102119.59
2022-08-09T22:17:25.866Z,102107.72
2022-08-09T22:19:58.617Z,102096.84
2022-08-09T22:22:27.839Z,102122.19
2022-08-09T22:26:08.137Z,102134.03
2022-08-09T22:27:41.214Z,102123.06
2022-08-09T22:30:14.473Z,102126.16
2022-08-09T22:32:41.814Z,102090.59
2022-08-09T22:36:01.247Z,102136.38
2022-08-09T22:38:03.320Z,102122.78
2022-08-09T22:40:34.435Z,102131.06
2022-08-09T22:43:01.222Z,102128.72
2022-08-09T22:48:12.379Z,102126.50
2022-08-09T22:48:36.284Z,102123.22
2022-08-09T22:51:10.773Z,102106.22
2022-08-09T22:54:02.473Z,102130.78
2022-08-09T22:56:34.308Z,102123.81
2022-08-09T22:59:57.014Z,102126.50
2022-08-09T23:01:52.374Z,102132.34
2022-08-09T23:04:19.629Z,102123.06
2022-08-09T23:07:11.322Z,102120.50
2022-08-09T23:09:41.144Z,102132.09
2022-08-09T23:12:08.088Z,102119.56
2022-08-09T23:14:42.256Z,102123.59
2022-08-09T23:17:10.449Z,102122.13
2022-08-09T23:20:06.903Z,102120.59
2022-08-09T23:22:24.413Z,102124.00
2022-08-09T23:24:51.172Z,102126.16
2022-08-09T23:27:17.845Z,102124.63
2022-08-09T23:29:44.876Z,102088.34
2022-08-09T23:32:11.724Z,102114.31
2022-08-09T23:34:38.552Z,102093.19
2022-08-09T23:37:05.680Z,102101.41
2022-08-09T23:39:32.824Z,102121.63
2022-08-09T23:41:59.684Z,102115.13
2022-08-09T23:44:26.529Z,102118.19
2022-08-09T23:46:57.420Z,102104.13
2022-08-09T23:49:25.962Z,102093.88
2022-08-09T23:51:53.391Z,102118.88
2022-08-09T23:54:24.419Z,102108.25
2022-08-09T23:56:55.830Z,102108.34
2022-08-09T23:59:24.520Z,102130.03
